Mc Cabe, Montana
Current Conditions -  °F | °C
As of 11:53 AM on Monday 20 Oct 2014 (Local Time) from KOLF Reporting Station
Clear Clear  
Wind Chill: 63°   Ceiling: Unl
Heat Index: 63°   Visibility: 10mi
Dew Point: 43°   Wind: 6mph
Humidity: 48%   Direction: 50°NE
Pressure: 29.87"   Gusts: NA
Location:  48.2801°N, 104.9441°W
Report Text: KOLF 201753Z AUTO 05005KT 10SM CLR 17/06 A2987 RMK AO2 SLP122 T01720061 10172 20011 58012
Loading
Personal Weather Stations






























Interactive Weather Map
Tropical Storm Tracking
New forecast layout! Learn more

10-Day Weather Forecast

Advertisements
Track Severe Weather on mobile